Terminal Aerodrome Forecast
Issued by NWS

Home | Current Version | Previous Version | Text Only | Print | Product List | Glossary On
Versions: 1 2 3 4 5 6 7 8 9 10 11 12 13 14 15 16 17 18 19 20
000
FTUS42 KMHX 201735
TAFISO
TAF
KISO 201735Z 2018/2118 23008KT P6SM BKN040
     FM210000 17006KT P6SM SCT040
     FM210400 18006KT 4SM BR SCT008 BKN035
     FM210900 VRB04KT 2SM BR SCT008 BKN025
     FM211400 20006KT P6SM BKN030
     FM211700 21009KT P6SM SCT030
      AMD LTD TO CLD VIS AND WIND=

USA.gov is the U.S. government's official web portal to all federal, state and local government web resources and services.